Time;durP1;ratioP1;P1;durP2;ratioP2;P2;SDS_P1;SDS_P2;PMS_P1;PMS_P2;Temp;Humidity;BMP_temperature;BMP_pressure;BME280_temperature;BME280_humidity;BME280_pressure;Samples;Min_cycle;Max_cycle;Signal;HPM_P1;HPM_P2
2022/11/22 00:00:45;;;;;;;34.00;12.60;;;17.50;56.50;;;;;;5128823;28;20072;-78
2022/11/22 00:11:11;;;;;;;;;;;17.70;59.00;;;;;;5123834;28;20112;-75
2022/11/22 00:26:00;;;;;;;39.17;28.80;;;17.70;53.50;;;;;;5094626;28;19927;-76
2022/11/22 00:36:25;;;;;;;;;;;17.70;53.40;;;;;;5096988;28;20042;-76
2022/11/22 00:46:32;;;;;;;26.45;19.65;;;17.60;53.30;;;;;;5113156;28;19972;-76
2022/11/22 00:52:22;;;;;;;25.77;20.20;;;17.60;53.40;;;;;;5733775;23;20499;-79
2022/11/22 00:54:47;;;;;;;23.85;18.70;;;17.60;53.60;;;;;;4975588;28;20030;-78
2022/11/22 00:57:13;;;;;;;24.58;19.73;;;17.60;53.70;;;;;;4920478;29;20039;-79
2022/11/22 00:59:39;;;;;;;24.50;19.88;;;17.60;53.60;;;;;;4953621;29;20508;-78
2022/11/22 01:02:04;;;;;;;26.02;20.33;;;17.60;53.70;;;;;;4951959;28;20031;-77
2022/11/22 01:04:30;;;;;;;25.40;19.20;;;17.60;53.60;;;;;;4953635;29;20069;-78
2022/11/22 01:06:56;;;;;;;25.60;20.13;;;17.50;53.70;;;;;;4966005;23;20070;-73
2022/11/22 01:09:23;;;;;;;23.88;19.50;;;17.60;53.60;;;;;;4949423;28;20035;-76
2022/11/22 01:11:49;;;;;;;25.35;19.73;;;17.60;53.70;;;;;;4971920;28;20027;-75
2022/11/22 01:14:15;;;;;;;23.45;19.35;;;17.60;53.60;;;;;;4972645;28;20026;-76
2022/11/22 01:16:41;;;;;;;25.65;19.95;;;17.60;53.60;;;;;;4972567;28;20500;-76
2022/11/22 01:19:07;;;;;;;24.60;18.83;;;17.60;53.70;;;;;;4955461;28;20041;-76
2022/11/22 01:21:33;;;;;;;25.77;20.40;;;17.60;53.90;;;;;;4972396;28;20026;-76
2022/11/22 01:23:59;;;;;;;22.27;18.70;;;17.60;53.90;;;;;;4954825;28;20114;-76
2022/11/22 01:26:25;;;;;;;28.48;18.75;;;17.60;53.80;;;;;;4963076;28;20139;-76
2022/11/22 01:28:51;;;;;;;24.48;19.20;;;17.60;53.80;;;;;;4950656;29;20019;-76
2022/11/22 01:31:17;;;;;;;26.48;19.05;;;17.60;54.00;;;;;;4954745;29;20106;-73
2022/11/22 01:33:42;;;;;;;37.80;31.38;;;17.60;53.50;;;;;;4954493;29;20039;-72
2022/11/22 01:36:08;;;;;;;40.72;31.85;;;17.30;49.00;;;;;;4953918;28;20050;-74
2022/11/22 01:38:34;;;;;;;52.80;33.08;;;17.20;47.20;;;;;;4954693;28;20477;-73
2022/11/22 01:41:00;;;;;;;45.75;31.27;;;17.20;48.30;;;;;;4937600;29;20074;-72
2022/11/22 01:43:27;;;;;;;41.53;28.83;;;17.30;49.00;;;;;;4953558;29;20405;-75
2022/11/22 01:46:01;;;;;;;40.25;27.98;;;17.30;49.50;;;;;;4954438;29;20019;-76
2022/11/22 01:48:32;;;;;;;37.42;28.58;;;17.40;50.00;;;;;;4954543;28;20031;-75
2022/11/22 01:51:13;;;;;;;34.83;28.38;;;17.40;50.00;;;;;;4954549;29;20135;-75
2022/11/22 01:53:39;;;;;;;32.80;27.60;;;17.40;50.30;;;;;;4936953;29;20063;-75
2022/11/22 01:56:08;;;;;;;39.08;27.15;;;17.40;50.50;;;;;;4937581;29;20031;-75
2022/11/22 01:58:37;;;;;;;32.85;26.00;;;17.50;50.70;;;;;;4937304;29;20027;-75
2022/11/22 02:01:03;;;;;;;33.70;25.60;;;17.50;51.10;;;;;;4954356;29;20110;-75
2022/11/22 02:03:32;;;;;;;33.75;26.33;;;17.50;51.20;;;;;;4936865;29;20065;-75
2022/11/22 02:05:58;;;;;;;30.97;25.97;;;17.50;51.30;;;;;;4954155;29;20077;-75
2022/11/22 02:08:35;;;;;;;31.63;25.98;;;17.50;51.30;;;;;;4934181;29;20046;-74
2022/11/22 02:11:02;;;;;;;34.92;25.05;;;17.50;51.30;;;;;;4953968;29;20035;-75
2022/11/22 02:13:32;;;;;;;30.80;25.17;;;17.50;51.60;;;;;;4953727;29;20093;-74
2022/11/22 02:15:58;;;;;;;;;;;17.50;51.60;;;;;;4954668;29;20035;-75
2022/11/22 02:18:24;;;;;;;30.48;24.02;;;17.50;51.60;;;;;;4936870;29;20349;-74
2022/11/22 02:20:51;;;;;;;30.88;24.75;;;17.50;51.70;;;;;;4953925;29;20027;-74
2022/11/22 02:23:29;;;;;;;28.75;23.38;;;17.50;51.80;;;;;;4953521;29;20102;-75
2022/11/22 02:25:59;;;;;;;32.28;23.65;;;17.50;51.70;;;;;;4953532;29;20097;-75
2022/11/22 02:28:33;;;;;;;30.25;23.50;;;17.50;51.70;;;;;;4953558;28;20024;-75
2022/11/22 02:30:59;;;;;;;28.00;22.50;;;17.50;51.90;;;;;;4948194;29;20031;-72
2022/11/22 02:33:25;;;;;;;33.15;23.17;;;17.50;51.90;;;;;;4953331;29;20030;-74
2022/11/22 02:35:51;;;;;;;28.00;22.10;;;17.50;52.00;;;;;;4953671;29;20039;-75
2022/11/22 02:38:24;;;;;;;35.78;22.75;;;17.50;52.00;;;;;;4952501;28;20540;-74
2022/11/22 02:41:00;;;;;;;27.80;22.38;;;17.50;52.00;;;;;;4953864;29;20047;-72
2022/11/22 02:43:30;;;;;;;26.20;21.55;;;17.50;52.10;;;;;;4951634;29;20035;-73
2022/11/22 02:46:03;;;;;;;27.08;21.98;;;17.50;52.10;;;;;;4949825;29;20449;-72
2022/11/22 02:48:29;;;;;;;28.60;21.65;;;17.50;52.00;;;;;;4953203;28;20043;-73
2022/11/22 02:50:55;;;;;;;24.90;20.30;;;17.50;52.20;;;;;;4952292;29;20039;-72
2022/11/22 02:53:20;;;;;;;27.80;21.73;;;17.50;52.10;;;;;;4953166;29;20388;-73
2022/11/22 02:55:46;;;;;;;28.70;21.48;;;17.50;52.00;;;;;;4953352;29;20094;-73
2022/11/22 02:58:12;;;;;;;25.75;21.02;;;17.50;52.00;;;;;;4953408;28;20051;-73
2022/11/22 03:00:38;;;;;;;26.23;20.98;;;17.60;52.10;;;;;;4920443;29;20393;-72
2022/11/22 03:03:04;;;;;;;26.77;20.77;;;17.60;52.10;;;;;;4952999;29;20038;-72
2022/11/22 03:05:30;;;;;;;26.10;20.67;;;17.50;52.10;;;;;;4953295;29;20035;-72
2022/11/22 03:07:56;;;;;;;26.30;20.33;;;17.50;51.90;;;;;;4953114;28;20042;-72
2022/11/22 03:10:22;;;;;;;24.17;19.67;;;17.60;52.10;;;;;;4953299;29;20039;-72
2022/11/22 03:12:48;;;;;;;27.73;20.30;;;17.60;52.10;;;;;;4952931;29;20114;-73
2022/11/22 03:15:13;;;;;;;24.42;19.00;;;17.50;52.00;;;;;;4953342;29;20053;-73
2022/11/22 03:17:39;;;;;;;23.60;18.70;;;17.50;52.00;;;;;;4953160;28;20086;-73
2022/11/22 03:20:06;;;;;;;25.02;19.55;;;17.50;52.30;;;;;;4953211;29;20453;-73
2022/11/22 03:22:31;;;;;;;25.40;19.70;;;17.60;52.40;;;;;;4953213;29;20035;-73
2022/11/22 03:24:57;;;;;;;23.42;18.40;;;17.60;52.10;;;;;;4930985;29;20051;-73
2022/11/22 03:27:23;;;;;;;24.27;18.83;;;17.50;52.10;;;;;;4952954;28;20038;-73
2022/11/22 03:29:49;;;;;;;22.88;18.65;;;17.60;52.10;;;;;;4953127;29;20481;-73
2022/11/22 03:32:15;;;;;;;28.23;19.05;;;17.60;52.20;;;;;;4952772;29;20031;-73
2022/11/22 03:34:40;;;;;;;24.58;18.38;;;17.50;52.10;;;;;;4935997;29;20504;-73
2022/11/22 03:37:06;;;;;;;22.63;18.08;;;17.50;52.20;;;;;;4953039;28;20062;-73
2022/11/22 03:39:32;;;;;;;22.33;17.90;;;17.50;52.10;;;;;;4953048;29;20023;-73
2022/11/22 03:41:58;;;;;;;24.73;17.75;;;17.60;52.40;;;;;;4952780;29;20102;-73
2022/11/22 03:44:23;;;;;;;20.23;16.15;;;17.50;52.20;;;;;;4936031;29;20489;-73
2022/11/22 03:46:49;;;;;;;21.02;16.55;;;17.60;52.30;;;;;;4936068;29;20561;-73
2022/11/22 03:49:15;;;;;;;20.38;16.50;;;17.50;52.20;;;;;;4952936;29;20027;-73
2022/11/22 03:51:41;;;;;;;21.55;17.48;;;17.50;52.30;;;;;;4935672;29;20023;-72
2022/11/22 03:54:07;;;;;;;21.67;17.13;;;17.50;52.20;;;;;;4952972;29;20066;-73
2022/11/22 03:56:32;;;;;;;20.65;16.40;;;17.60;52.40;;;;;;4952853;28;20032;-72
2022/11/22 03:58:59;;;;;;;20.83;16.15;;;17.50;52.30;;;;;;4953597;28;20051;-72
2022/11/22 04:01:24;;;;;;;21.58;16.35;;;17.50;52.30;;;;;;4939455;29;20494;-72
2022/11/22 04:03:51;;;;;;;20.65;16.00;;;17.60;52.40;;;;;;4956400;29;20027;-73
2022/11/22 04:06:17;;;;;;;23.63;17.38;;;17.50;52.40;;;;;;4955303;28;20031;-72
2022/11/22 04:08:43;;;;;;;21.63;17.48;;;17.60;52.40;;;;;;4956309;29;20035;-73
2022/11/22 04:11:08;;;;;;;23.08;16.98;;;17.50;52.50;;;;;;4956367;29;20057;-72
2022/11/22 04:16:19;;;;;;;20.55;15.85;;;17.50;52.40;;;;;;4956089;29;20041;-73
2022/11/22 04:18:45;;;;;;;19.98;15.63;;;17.60;52.50;;;;;;4956300;29;20106;-72
2022/11/22 04:26:39;;;;;;;19.00;15.05;;;17.60;52.40;;;;;;4956169;28;20031;-72
2022/11/22 04:29:05;;;;;;;21.05;15.52;;;17.50;52.40;;;;;;4955945;29;20035;-72
2022/11/22 04:34:15;;;;;;;21.05;15.60;;;17.60;52.40;;;;;;4955825;29;20427;-73
2022/11/22 04:36:41;;;;;;;19.27;15.50;;;17.60;52.40;;;;;;4955659;28;20114;-73
2022/11/22 04:39:07;;;;;;;18.08;14.50;;;17.60;52.40;;;;;;4955993;29;20039;-73
2022/11/22 04:41:33;;;;;;;19.80;15.13;;;17.60;52.40;;;;;;4955783;29;20054;-73
2022/11/22 04:46:43;;;;;;;18.23;14.18;;;17.50;52.40;;;;;;4955741;28;20036;-73
2022/11/22 04:49:08;;;;;;;19.17;14.82;;;17.60;52.50;;;;;;4955751;29;20019;-73
2022/11/22 04:54:18;;;;;;;19.80;14.48;;;17.50;52.40;;;;;;4954836;29;20098;-73
2022/11/22 04:56:44;;;;;;;19.00;14.48;;;17.50;52.40;;;;;;4955414;28;20023;-73
2022/11/22 04:59:10;;;;;;;17.92;14.15;;;17.60;52.40;;;;;;4938503;29;20038;-73
2022/11/22 05:01:35;;;;;;;17.42;13.45;;;17.50;52.60;;;;;;4955128;29;20118;-73
2022/11/22 05:04:01;;;;;;;19.58;14.25;;;17.60;52.70;;;;;;4952139;28;20484;-73
2022/11/22 05:06:27;;;;;;;19.63;14.48;;;17.60;52.60;;;;;;4953654;28;20453;-74
2022/11/22 05:08:52;;;;;;;18.52;14.55;;;17.50;52.50;;;;;;4954387;29;20115;-73
2022/11/22 05:11:18;;;;;;;17.98;13.35;;;17.50;52.50;;;;;;4954319;28;20027;-73
2022/11/22 05:13:44;;;;;;;18.67;14.07;;;17.50;52.40;;;;;;4953974;29;20126;-73
2022/11/22 05:16:13;;;;;;;18.30;13.95;;;17.50;52.50;;;;;;4955100;29;20090;-74
2022/11/22 05:18:39;;;;;;;18.27;14.00;;;17.50;52.50;;;;;;4954699;29;20023;-74
2022/11/22 05:21:11;;;;;;;18.10;13.32;;;17.50;53.00;;;;;;4937985;29;20051;-73
2022/11/22 05:23:55;;;;;;;19.17;13.88;;;17.60;52.50;;;;;;4937454;29;20033;-73
2022/11/22 05:26:26;;;;;;;18.45;13.35;;;17.60;52.60;;;;;;4954965;28;20039;-74
2022/11/22 05:28:53;;;;;;;20.85;14.02;;;17.50;52.60;;;;;;4954597;29;20078;-74
2022/11/22 05:31:24;;;;;;;18.73;13.57;;;17.50;52.60;;;;;;4937599;29;20035;-74
2022/11/22 05:33:51;;;;;;;18.08;13.82;;;17.60;52.80;;;;;;4953732;29;20031;-74
2022/11/22 05:36:18;;;;;;;19.00;13.70;;;17.60;52.60;;;;;;4954665;28;20515;-74
2022/11/22 05:38:44;;;;;;;18.38;13.98;;;17.50;52.60;;;;;;4954553;29;20102;-73
2022/11/22 05:41:12;;;;;;;17.65;12.80;;;17.60;52.50;;;;;;4954482;29;20110;-73
2022/11/22 05:43:38;;;;;;;17.20;12.40;;;17.50;52.50;;;;;;4953512;29;20098;-73
2022/11/22 05:46:12;;;;;;;18.38;13.57;;;17.50;52.60;;;;;;4954437;29;20059;-73
2022/11/22 05:48:41;;;;;;;17.23;13.30;;;17.50;52.50;;;;;;4954444;29;20117;-72
2022/11/22 05:51:09;;;;;;;17.45;12.40;;;17.50;52.50;;;;;;4936271;29;20061;-73
2022/11/22 05:53:36;;;;;;;18.23;13.10;;;17.50;52.70;;;;;;4953921;29;20031;-73
2022/11/22 05:56:11;;;;;;;16.75;12.40;;;17.50;52.50;;;;;;4937115;29;20035;-74
2022/11/22 05:58:37;;;;;;;18.08;13.02;;;17.60;52.60;;;;;;4937258;29;20055;-74
2022/11/22 06:01:06;;;;;;;17.85;12.93;;;17.60;52.50;;;;;;4937183;29;20031;-74
2022/11/22 06:03:33;;;;;;;16.95;12.70;;;17.60;52.60;;;;;;4936150;29;20572;-73
2022/11/22 06:05:58;;;;;;;17.60;12.27;;;17.60;52.50;;;;;;4953526;29;20027;-74
2022/11/22 06:08:24;;;;;;;17.50;12.02;;;17.60;52.70;;;;;;4938829;28;20054;-74
2022/11/22 06:10:50;;;;;;;17.67;12.85;;;17.60;52.60;;;;;;4937116;29;20106;-74
2022/11/22 06:13:16;;;;;;;17.25;13.40;;;17.60;52.70;;;;;;4936546;29;20031;-74
2022/11/22 06:15:42;;;;;;;18.27;12.60;;;17.60;52.70;;;;;;4954152;29;20085;-74
2022/11/22 06:18:07;;;;;;;15.95;11.75;;;17.60;52.70;;;;;;4936974;29;20127;-73
2022/11/22 06:20:33;;;;;;;17.73;12.75;;;17.50;52.70;;;;;;4953993;29;20047;-74
2022/11/22 06:22:59;;;;;;;15.50;11.80;;;17.60;52.60;;;;;;4951778;28;20399;-74
2022/11/22 06:25:25;;;;;;;17.45;12.40;;;17.50;52.60;;;;;;4952947;29;20034;-74
2022/11/22 06:27:50;;;;;;;17.50;12.77;;;17.60;52.70;;;;;;4921132;29;20042;-74
2022/11/22 06:30:16;;;;;;;16.58;12.20;;;17.60;52.70;;;;;;4953701;29;20031;-74
2022/11/22 06:32:42;;;;;;;16.40;12.10;;;17.50;52.60;;;;;;4953348;29;20110;-74
2022/11/22 06:35:08;;;;;;;17.67;12.10;;;17.60;52.70;;;;;;4952919;29;20035;-73
2022/11/22 06:37:34;;;;;;;16.52;11.85;;;17.60;52.70;;;;;;4953534;29;20034;-73
2022/11/22 06:39:59;;;;;;;16.73;12.07;;;17.50;52.70;;;;;;4953893;29;20027;-73
2022/11/22 06:42:25;;;;;;;17.98;12.70;;;17.60;52.70;;;;;;4953601;29;20031;-73
2022/11/22 06:44:51;;;;;;;17.27;12.25;;;17.60;52.70;;;;;;4953557;29;20051;-72
2022/11/22 06:47:17;;;;;;;16.52;11.98;;;17.60;52.70;;;;;;4953489;28;20031;-73
2022/11/22 06:49:44;;;;;;;16.23;11.90;;;17.60;52.80;;;;;;4953677;29;20043;-73
2022/11/22 06:52:10;;;;;;;16.20;11.90;;;17.50;52.70;;;;;;4952899;29;20035;-74
2022/11/22 06:54:35;;;;;;;16.50;12.15;;;17.60;52.80;;;;;;4953487;29;20086;-74
2022/11/22 06:57:01;;;;;;;18.40;12.13;;;17.60;52.80;;;;;;4936308;29;20397;-74
2022/11/22 06:59:27;;;;;;;16.08;11.73;;;17.60;52.80;;;;;;4952269;29;20031;-73
2022/11/22 07:01:53;;;;;;;15.52;11.27;;;17.60;52.90;;;;;;4953215;29;20682;-73
2022/11/22 07:04:19;;;;;;;15.63;11.32;;;17.60;52.90;;;;;;4952706;29;20027;-73
2022/11/22 07:06:46;;;;;;;15.75;11.10;;;17.60;52.90;;;;;;4952854;28;20027;-74
2022/11/22 07:09:12;;;;;;;17.38;11.68;;;17.60;52.90;;;;;;4952561;29;20027;-73
2022/11/22 07:11:39;;;;;;;16.58;11.65;;;17.60;52.90;;;;;;4953010;29;20497;-73
2022/11/22 07:14:05;;;;;;;17.48;11.88;;;17.60;52.90;;;;;;4953110;29;20054;-73
2022/11/22 07:16:31;;;;;;;16.02;11.45;;;17.60;52.90;;;;;;4953272;28;20102;-73
2022/11/22 07:18:59;;;;;;;16.05;11.20;;;17.60;53.00;;;;;;4935991;29;20477;-74
2022/11/22 07:21:25;;;;;;;17.38;11.63;;;17.60;52.90;;;;;;4935711;29;20477;-73
2022/11/22 07:23:53;;;;;;;16.05;11.43;;;17.60;52.80;;;;;;4904255;29;20050;-73
2022/11/22 07:26:21;;;;;;;16.27;11.63;;;17.60;52.80;;;;;;4951660;28;20110;-73
2022/11/22 07:28:47;;;;;;;14.73;10.45;;;17.60;52.80;;;;;;4953033;29;20474;-73
2022/11/22 07:31:15;;;;;;;16.67;11.65;;;17.60;52.90;;;;;;4950672;29;20110;-74
2022/11/22 07:33:42;;;;;;;15.95;11.07;;;17.60;52.80;;;;;;4952259;28;20024;-74
2022/11/22 07:36:09;;;;;;;14.50;10.48;;;17.60;52.70;;;;;;4956945;29;20035;-73
2022/11/22 07:38:35;;;;;;;15.75;11.02;;;17.60;52.70;;;;;;4956802;28;20059;-73
2022/11/22 07:41:01;;;;;;;17.48;12.05;;;17.60;52.80;;;;;;4956709;29;20071;-73
2022/11/22 07:43:27;;;;;;;15.95;10.82;;;17.60;52.80;;;;;;4956326;29;20038;-73
2022/11/22 07:46:00;;;;;;;16.00;11.15;;;17.60;52.80;;;;;;4939565;29;20063;-74
2022/11/22 07:48:26;;;;;;;16.80;11.30;;;17.60;52.80;;;;;;4956533;29;20031;-73
2022/11/22 07:50:52;;;;;;;16.02;11.43;;;17.60;52.90;;;;;;4956568;29;20038;-73
2022/11/22 07:53:18;;;;;;;17.67;11.07;;;17.60;52.90;;;;;;4955649;29;20034;-73
2022/11/22 07:55:44;;;;;;;16.25;11.20;;;17.60;53.00;;;;;;4936142;29;20024;-73
2022/11/22 07:58:09;;;;;;;15.23;11.15;;;17.60;53.00;;;;;;4935167;29;20457;-73
2022/11/22 08:00:35;;;;;;;17.55;12.07;;;17.70;53.00;;;;;;4956510;29;20062;-73
2022/11/22 08:03:01;;;;;;;16.50;11.57;;;17.60;53.00;;;;;;4955946;29;20027;-73
2022/11/22 08:05:27;;;;;;;16.27;11.95;;;17.60;53.60;;;;;;4956565;29;20027;-73
2022/11/22 08:07:53;;;;;;;17.27;11.75;;;17.60;53.00;;;;;;4956266;28;20039;-73
2022/11/22 08:10:20;;;;;;;16.15;11.00;;;17.60;53.30;;;;;;4956263;29;20114;-73
2022/11/22 08:12:46;;;;;;;17.67;11.63;;;17.60;53.10;;;;;;4955759;29;20031;-73
2022/11/22 08:15:14;;;;;;;16.65;11.77;;;17.60;53.10;;;;;;4955275;29;20482;-73
2022/11/22 08:17:40;;;;;;;17.98;11.77;;;17.60;53.10;;;;;;4955828;29;20389;-74
2022/11/22 08:20:08;;;;;;;16.30;11.18;;;17.60;53.10;;;;;;4956365;29;20114;-73
2022/11/22 08:22:35;;;;;;;17.63;12.02;;;17.60;53.10;;;;;;4956216;29;20055;-73
2022/11/22 08:25:00;;;;;;;16.23;11.18;;;17.60;53.30;;;;;;4955497;29;20508;-73
2022/11/22 08:27:26;;;;;;;17.40;12.25;;;17.60;53.10;;;;;;4955712;28;20031;-73
2022/11/22 08:29:52;;;;;;;17.55;11.45;;;17.60;53.10;;;;;;4956077;29;20035;-73
2022/11/22 08:32:18;;;;;;;16.58;11.85;;;17.60;53.10;;;;;;4938223;29;20039;-73
2022/11/22 08:34:44;;;;;;;17.38;11.90;;;17.60;53.10;;;;;;4956099;29;20027;-73
2022/11/22 08:37:09;;;;;;;16.73;11.20;;;17.60;53.20;;;;;;4955773;28;20032;-73
2022/11/22 08:39:35;;;;;;;17.50;12.80;;;17.60;53.20;;;;;;4955935;29;20035;-73
2022/11/22 08:42:01;;;;;;;17.38;11.88;;;17.60;53.20;;;;;;4955454;29;20023;-73
2022/11/22 08:44:26;;;;;;;17.52;12.27;;;17.60;53.20;;;;;;4963147;28;20026;-74
2022/11/22 08:46:52;;;;;;;17.35;12.73;;;17.60;53.20;;;;;;4938022;29;20485;-74
2022/11/22 08:49:18;;;;;;;17.73;12.85;;;17.60;53.10;;;;;;4955710;29;20034;-74
2022/11/22 08:51:45;;;;;;;20.58;12.15;;;17.60;53.10;;;;;;4938111;29;20126;-74
2022/11/22 08:54:13;;;;;;;17.33;12.13;;;17.60;53.20;;;;;;4955352;29;20066;-74
2022/11/22 08:56:39;;;;;;;19.60;12.75;;;17.60;53.20;;;;;;4955457;28;20033;-74
2022/11/22 08:59:05;;;;;;;19.40;12.10;;;17.60;53.10;;;;;;4938409;29;20028;-74
2022/11/22 09:01:31;;;;;;;17.75;11.85;;;17.60;53.10;;;;;;4955338;29;20030;-74
2022/11/22 09:03:57;;;;;;;20.52;12.82;;;17.60;53.10;;;;;;4937961;29;20032;-74
2022/11/22 09:06:24;;;;;;;18.20;13.00;;;17.60;53.10;;;;;;4955305;28;20067;-74
2022/11/22 09:08:50;;;;;;;18.42;12.85;;;17.60;53.10;;;;;;4938176;29;20042;-73
2022/11/22 09:11:18;;;;;;;18.25;12.68;;;17.60;53.10;;;;;;4955400;29;20038;-73
2022/11/22 09:13:45;;;;;;;17.83;12.43;;;17.70;53.10;;;;;;4938205;29;20111;-73
2022/11/22 09:16:12;;;;;;;17.00;12.10;;;17.60;53.00;;;;;;4955438;29;20034;-74
2022/11/22 09:18:38;;;;;;;16.50;11.82;;;17.60;53.10;;;;;;4938049;29;20066;-73
2022/11/22 09:21:09;;;;;;;17.48;12.18;;;17.60;53.10;;;;;;4937845;29;20469;-73
2022/11/22 09:23:35;;;;;;;17.70;11.85;;;17.60;53.70;;;;;;4954804;29;20548;-73
2022/11/22 09:26:05;;;;;;;17.40;11.68;;;17.60;53.40;;;;;;4954987;29;20094;-73
2022/11/22 09:28:31;;;;;;;19.55;12.02;;;17.60;53.30;;;;;;4937686;29;20489;-73
2022/11/22 09:31:03;;;;;;;16.90;11.90;;;17.60;53.30;;;;;;4955075;29;20268;-73
2022/11/22 09:33:29;;;;;;;18.63;12.35;;;17.60;53.50;;;;;;4954607;29;20083;-73
2022/11/22 09:36:08;;;;;;;17.42;12.23;;;17.60;53.20;;;;;;4937867;29;20524;-73
2022/11/22 09:38:35;;;;;;;17.83;11.77;;;17.60;53.20;;;;;;4937714;29;20553;-73
2022/11/22 09:41:13;;;;;;;17.05;10.98;;;17.60;53.10;;;;;;4937544;29;20035;-73
2022/11/22 09:44:10;;;;;;;16.55;11.40;;;17.60;53.20;;;;;;4937276;29;20035;-74
2022/11/22 09:46:53;;;;;;;18.30;11.85;;;17.60;53.30;;;;;;4937626;29;20035;-73
2022/11/22 09:49:26;;;;;;;19.88;12.45;;;17.60;53.40;;;;;;4954468;29;20027;-73
2022/11/22 09:52:09;;;;;;;15.32;11.23;;;17.60;53.30;;;;;;4937103;29;20062;-73
2022/11/22 09:54:59;;;;;;;16.58;11.00;;;17.60;53.50;;;;;;4937318;29;20041;-73
2022/11/22 09:57:38;;;;;;;16.75;11.55;;;17.60;53.50;;;;;;4936696;29;20047;-73
2022/11/22 10:00:10;;;;;;;16.55;11.43;;;17.60;53.20;;;;;;4954463;29;20038;-73
2022/11/22 10:02:44;;;;;;;16.60;11.38;;;17.60;53.20;;;;;;4954179;29;20050;-73
2022/11/22 10:05:19;;;;;;;16.58;11.23;;;17.60;53.40;;;;;;4937235;29;20023;-73
2022/11/22 10:07:58;;;;;;;18.08;11.73;;;17.60;53.50;;;;;;4936893;29;20064;-74
2022/11/22 10:10:34;;;;;;;20.17;11.05;;;17.60;53.20;;;;;;4953458;29;20031;-73
2022/11/22 10:12:59;;;;;;;23.58;11.07;;;17.60;54.60;;;;;;4932105;29;20042;-73
2022/11/22 10:15:46;;;;;;;28.10;11.75;;;17.60;54.60;;;;;;4951205;29;20610;-74
2022/11/22 10:18:49;;;;;;;32.13;11.73;;;17.70;53.90;;;;;;4951967;28;20031;-73
2022/11/22 10:21:18;;;;;;;33.67;11.63;;;17.70;55.80;;;;;;4949306;28;20094;-73
2022/11/22 10:23:46;;;;;;;22.97;10.87;;;17.80;55.80;;;;;;4948440;28;20027;-73
2022/11/22 10:26:33;;;;;;;26.10;11.75;;;17.80;55.50;;;;;;4950515;29;20031;-74
2022/11/22 10:29:24;;;;;;;34.83;11.55;;;17.90;55.90;;;;;;4950722;29;20086;-74
2022/11/22 10:32:20;;;;;;;29.70;11.75;;;18.00;55.60;;;;;;4951031;29;20043;-74
2022/11/22 10:35:15;;;;;;;24.70;11.93;;;18.10;55.40;;;;;;4950521;29;20035;-74
2022/11/22 10:38:02;;;;;;;28.50;11.70;;;18.20;56.00;;;;;;4951042;29;20031;-74
2022/11/22 10:40:46;;;;;;;30.00;11.88;;;18.40;57.10;;;;;;4933961;29;20066;-74
2022/11/22 10:43:42;;;;;;;21.95;11.60;;;18.50;57.80;;;;;;4933845;29;20094;-74
2022/11/22 10:46:17;;;;;;;25.55;11.80;;;18.60;58.40;;;;;;4951204;29;20035;-73
2022/11/22 10:48:56;;;;;;;20.17;10.85;;;18.60;58.60;;;;;;4950869;29;20693;-73
2022/11/22 10:51:43;;;;;;;19.60;11.57;;;18.60;57.30;;;;;;4933645;29;20623;-74
2022/11/22 10:54:45;;;;;;;17.45;11.80;;;18.50;56.90;;;;;;4948857;29;20341;-73
2022/11/22 10:57:28;;;;;;;27.73;11.82;;;18.50;56.70;;;;;;4949898;28;20421;-73
2022/11/22 11:00:19;;;;;;;23.83;11.50;;;18.50;56.50;;;;;;4950428;29;20019;-74
2022/11/22 11:03:17;;;;;;;20.17;11.57;;;18.50;56.40;;;;;;4950625;29;20400;-74
2022/11/22 11:06:07;;;;;;;26.38;11.52;;;18.50;56.40;;;;;;4950818;29;20039;-74
2022/11/22 11:08:40;;;;;;;19.52;11.20;;;18.50;56.30;;;;;;4950283;29;20035;-74
2022/11/22 11:11:05;;;;;;;27.23;11.48;;;18.50;56.30;;;;;;4917667;29;20135;-74
2022/11/22 11:13:37;;;;;;;22.05;11.23;;;18.60;56.30;;;;;;4931061;29;20517;-73
2022/11/22 11:16:08;;;;;;;21.45;11.23;;;18.60;56.50;;;;;;4929765;29;20023;-74
2022/11/22 11:19:05;;;;;;;20.10;10.57;;;18.60;56.90;;;;;;4965729;23;20062;-74
2022/11/22 11:21:31;;;;;;;16.83;10.50;;;18.60;56.60;;;;;;4944903;28;20035;-73
2022/11/22 11:23:56;;;;;;;32.72;11.52;;;18.60;56.50;;;;;;4949329;28;20031;-73
2022/11/22 11:26:34;;;;;;;19.40;10.82;;;18.60;57.20;;;;;;4947805;29;20493;-73
2022/11/22 11:29:15;;;;;;;25.75;10.80;;;18.60;57.10;;;;;;4913331;29;20046;-74
2022/11/22 11:32:08;;;;;;;24.83;11.63;;;18.60;57.60;;;;;;4930203;29;20031;-73
2022/11/22 11:34:35;;;;;;;24.63;11.93;;;18.70;59.60;;;;;;4930820;29;20046;-73
2022/11/22 11:37:04;;;;;;;33.30;11.43;;;18.70;60.00;;;;;;4931475;29;20036;-75
2022/11/22 11:39:32;;;;;;;25.90;11.52;;;18.70;59.70;;;;;;4930159;29;20035;-75
2022/11/22 11:41:59;;;;;;;31.73;14.30;;;18.70;58.30;;;;;;4945722;29;20096;-75
2022/11/22 11:44:35;;;;;;;28.55;13.15;;;18.70;58.50;;;;;;4930404;29;20130;-75
2022/11/22 11:47:03;;;;;;;29.73;12.32;;;18.70;58.10;;;;;;4928293;29;20066;-74
2022/11/22 11:49:31;;;;;;;30.30;12.43;;;18.70;58.00;;;;;;4926164;29;20064;-74
2022/11/22 11:52:15;;;;;;;34.67;12.02;;;18.70;58.00;;;;;;4945326;29;20039;-75
2022/11/22 11:54:44;;;;;;;48.50;13.02;;;18.70;58.20;;;;;;4927335;29;20032;-76
2022/11/22 11:57:26;;;;;;;39.50;13.52;;;18.80;58.10;;;;;;4925906;29;20028;-75
2022/11/22 11:59:52;;;;;;;164.23;113.93;;;18.80;58.00;;;;;;4927674;29;20024;-76
2022/11/22 12:02:32;;;;;;;348.98;267.65;;;18.80;57.80;;;;;;4931314;29;20032;-75
2022/11/22 12:05:28;;;;;;;321.67;249.60;;;18.80;57.80;;;;;;4946295;29;20142;-76
2022/11/22 12:07:54;;;;;;;224.23;158.43;;;18.80;57.70;;;;;;4914289;29;20450;-75
2022/11/22 12:10:30;;;;;;;181.43;122.93;;;18.80;57.80;;;;;;4929949;29;20028;-76
2022/11/22 12:13:05;;;;;;;171.73;116.88;;;18.80;57.80;;;;;;4930883;29;20032;-76
2022/11/22 12:15:46;;;;;;;176.70;115.57;;;18.80;57.70;;;;;;4930477;29;20028;-76
2022/11/22 12:18:38;;;;;;;160.40;110.07;;;18.80;57.70;;;;;;4946377;29;20075;-76
2022/11/22 12:21:16;;;;;;;155.93;108.72;;;18.70;57.70;;;;;;4928370;29;20063;-76
2022/11/22 12:24:16;;;;;;;60.53;43.47;;;18.70;57.70;;;;;;4927009;29;20541;-77
2022/11/22 12:26:42;;;;;;;51.97;30.10;;;17.60;46.20;;;;;;4940400;29;20397;-76
2022/11/22 12:29:11;;;;;;;46.60;30.98;;;16.80;48.00;;;;;;4934907;29;20039;-75
2022/11/22 12:31:47;;;;;;;41.33;26.23;;;17.10;50.00;;;;;;4936222;29;20039;-76
2022/11/22 12:34:21;;;;;;;45.17;28.70;;;17.50;49.20;;;;;;4934696;29;20393;-75
2022/11/22 12:36:53;;;;;;;39.60;28.42;;;17.80;49.30;;;;;;4934169;29;20035;-75
2022/11/22 12:39:27;;;;;;;47.17;29.25;;;18.00;49.70;;;;;;4934340;29;20034;-75
2022/11/22 12:42:13;;;;;;;49.42;29.85;;;18.10;50.20;;;;;;4933897;29;20094;-75
2022/11/22 12:45:13;;;;;;;46.92;29.77;;;18.20;51.50;;;;;;4933956;29;20038;-75
2022/11/22 12:47:43;;;;;;;43.72;28.15;;;18.40;52.70;;;;;;4920180;29;20536;-75
2022/11/22 12:50:29;;;;;;;42.92;28.30;;;18.50;52.30;;;;;;4934339;29;20031;-78
2022/11/22 12:53:08;;;;;;;42.40;28.65;;;18.60;52.20;;;;;;4933503;29;20031;-75
2022/11/22 12:55:48;;;;;;;39.45;26.58;;;18.60;52.20;;;;;;4934012;29;20047;-75
2022/11/22 12:58:20;;;;;;;45.40;27.42;;;18.60;52.20;;;;;;4948300;29;20633;-75
2022/11/22 13:01:16;;;;;;;40.20;27.35;;;18.60;52.20;;;;;;4948532;29;20386;-82
2022/11/22 13:03:53;;;;;;;38.95;25.33;;;18.70;52.60;;;;;;4933515;29;20058;-75
2022/11/22 13:06:24;;;;;;;44.50;26.55;;;18.70;52.50;;;;;;4933597;29;20031;-76
2022/11/22 13:09:01;;;;;;;42.00;25.80;;;18.70;52.60;;;;;;4933766;29;20038;-76
2022/11/22 13:11:33;;;;;;;42.65;26.50;;;18.70;52.80;;;;;;4933677;29;20032;-76
2022/11/22 13:14:21;;;;;;;37.40;25.50;;;18.70;52.90;;;;;;4933699;29;20126;-75
2022/11/22 13:16:49;;;;;;;38.30;25.42;;;18.80;53.50;;;;;;4933344;29;20375;-76
2022/11/22 13:19:16;;;;;;;39.20;24.35;;;18.80;53.10;;;;;;4933690;29;20039;-76
2022/11/22 13:22:20;;;;;;;42.70;24.48;;;18.80;53.50;;;;;;4933142;29;20902;-76
2022/11/22 13:24:45;;;;;;;37.92;23.00;;;18.80;53.40;;;;;;4933811;29;20119;-76
2022/11/22 13:27:32;;;;;;;41.72;23.27;;;18.80;53.50;;;;;;4933391;29;20134;-75
2022/11/22 13:30:00;;;;;;;36.42;23.15;;;18.80;53.60;;;;;;4933287;29;20078;-75
2022/11/22 13:32:31;;;;;;;36.72;22.40;;;18.80;53.60;;;;;;4933003;29;20487;-75
2022/11/22 13:35:12;;;;;;;33.83;22.17;;;18.70;53.70;;;;;;4947720;29;20031;-75
2022/11/22 13:37:51;;;;;;;38.03;21.95;;;18.70;54.80;;;;;;4948178;29;20035;-75
2022/11/22 13:40:30;;;;;;;34.60;22.97;;;18.80;56.60;;;;;;4933361;29;20050;-75